createdAt,value
2023-01-15T00:02:18.934Z,95795.91
2023-01-15T00:04:45.523Z,95803.19
2023-01-15T00:07:12.282Z,95803.38
2023-01-15T00:09:39.478Z,95805.91
2023-01-15T00:12:06.418Z,95796.56
2023-01-15T00:14:32.982Z,95773.81
2023-01-15T00:16:59.583Z,95780.59
2023-01-15T00:19:26.453Z,95785.50
2023-01-15T00:21:53.956Z,95779.03
2023-01-15T00:24:39.059Z,95770.66
2023-01-15T00:27:45.622Z,95767.13
2023-01-15T00:30:15.596Z,95762.53
2023-01-15T00:32:43.563Z,95749.59
2023-01-15T00:35:30.433Z,95750.22
2023-01-15T00:37:57.796Z,95733.34
2023-01-15T00:40:24.393Z,95737.72
2023-01-15T00:42:54.185Z,95737.22
2023-01-15T00:45:21.672Z,95733.13
2023-01-15T00:47:50.433Z,95739.13
2023-01-15T00:50:17.179Z,95716.91
2023-01-15T00:52:43.921Z,95720.38
2023-01-15T00:55:10.509Z,95714.72
2023-01-15T00:57:37.248Z,95710.97
2023-01-15T01:00:04.763Z,95708.44
2023-01-15T01:02:31.437Z,95711.03
2023-01-15T01:04:58.066Z,95712.44
2023-01-15T01:07:24.652Z,95707.16
2023-01-15T01:09:51.194Z,95716.22
2023-01-15T01:12:21.221Z,95714.19
2023-01-15T01:14:47.815Z,95702.19
2023-01-15T01:17:15.132Z,95716.53
2023-01-15T01:19:41.546Z,95710.56
2023-01-15T01:22:08.120Z,95714.34
2023-01-15T01:24:34.760Z,95720.06
2023-01-15T01:27:02.145Z,95715.97
2023-01-15T01:29:28.792Z,95717.91
2023-01-15T01:31:55.317Z,95705.34
2023-01-15T01:34:21.754Z,95712.59
2023-01-15T01:36:48.383Z,95714.13
2023-01-15T01:39:16.428Z,95707.63
2023-01-15T01:41:44.552Z,95706.84
2023-01-15T01:44:32.819Z,95702.47
2023-01-15T01:47:08.041Z,95702.97
2023-01-15T01:49:36.173Z,95690.38
2023-01-15T01:52:09.541Z,95685.84
2023-01-15T01:54:38.618Z,95685.00
2023-01-15T01:57:07.133Z,95687.91
2023-01-15T01:59:34.080Z,95663.47
2023-01-15T02:02:00.889Z,95677.59
2023-01-15T02:04:29.460Z,95683.88
2023-01-15T02:06:58.068Z,95673.63
2023-01-15T02:09:24.889Z,95659.09
2023-01-15T02:11:56.992Z,95650.13
2023-01-15T02:14:42.211Z,95669.59
2023-01-15T02:17:20.509Z,95663.91
2023-01-15T02:20:06.515Z,95647.56
2023-01-15T02:23:02.654Z,95631.69
2023-01-15T02:25:40.014Z,95637.63
2023-01-15T02:28:16.476Z,95638.31
2023-01-15T02:30:47.602Z,95642.03
2023-01-15T02:33:19.963Z,95622.28
2023-01-15T02:35:52.696Z,95630.81
2023-01-15T02:38:22.946Z,95623.47
2023-01-15T02:40:56.273Z,95623.47
2023-01-15T02:43:25.799Z,95609.56
2023-01-15T02:45:55.818Z,95600.00
2023-01-15T02:48:26.714Z,95592.13
2023-01-15T02:50:59.559Z,95599.00
2023-01-15T02:53:30.865Z,95603.41
2023-01-15T02:56:06.851Z,95585.56
2023-01-15T02:58:43.797Z,95606.03
2023-01-15T03:01:27.006Z,95601.53
2023-01-15T03:04:18.899Z,95604.38
2023-01-15T03:07:07.887Z,95608.03
2023-01-15T03:09:37.230Z,95574.75
2023-01-15T03:12:16.273Z,95591.66
2023-01-15T03:15:07.763Z,95589.91
2023-01-15T03:17:44.384Z,95576.53
2023-01-15T03:20:26.567Z,95579.94
2023-01-15T03:23:00.552Z,95562.25
2023-01-15T03:25:34.486Z,95572.38
2023-01-15T03:28:04.018Z,95548.78
2023-01-15T03:30:30.728Z,95561.13
2023-01-15T03:32:58.106Z,95559.66
2023-01-15T03:35:49.520Z,95545.41
2023-01-15T03:38:40.135Z,95523.13
2023-01-15T03:41:41.959Z,95546.97
2023-01-15T03:44:26.473Z,95543.44
2023-01-15T03:47:07.943Z,95529.56
2023-01-15T03:49:51.696Z,95539.19
2023-01-15T03:53:06.057Z,95548.31
2023-01-15T03:55:45.679Z,95534.22
2023-01-15T03:58:19.243Z,95546.41
2023-01-15T04:00:52.973Z,95533.09
2023-01-15T04:03:23.907Z,95535.75
2023-01-15T04:05:52.672Z,95539.06
2023-01-15T04:08:21.283Z,95536.81
2023-01-15T04:10:59.863Z,95536.09
2023-01-15T04:13:31.507Z,95530.75
2023-01-15T04:15:58.960Z,95533.63
2023-01-15T04:18:26.228Z,95539.16
2023-01-15T04:20:54.712Z,95534.97
2023-01-15T04:23:21.956Z,95501.31
2023-01-15T04:25:48.644Z,95509.19
2023-01-15T04:28:15.195Z,95522.84
2023-01-15T04:30:43.553Z,95523.25
2023-01-15T04:33:10.854Z,95525.03
2023-01-15T04:35:38.363Z,95521.66
2023-01-15T04:38:04.929Z,95508.78
2023-01-15T04:40:50.018Z,95512.00
2023-01-15T04:43:35.428Z,95491.78
2023-01-15T04:46:01.962Z,95495.66
2023-01-15T04:48:28.567Z,95511.41
2023-01-15T04:50:55.014Z,95512.31
2023-01-15T04:53:21.591Z,95511.47
2023-01-15T04:55:48.156Z,95506.31
2023-01-15T04:58:15.238Z,95512.19
2023-01-15T05:00:41.922Z,95504.59
2023-01-15T05:03:08.676Z,95496.09
2023-01-15T05:05:35.086Z,95488.84
2023-01-15T05:08:01.686Z,95473.38
2023-01-15T05:10:28.217Z,95452.84
2023-01-15T05:12:54.677Z,95467.81
2023-01-15T05:15:21.244Z,95455.06
2023-01-15T05:17:47.663Z,95462.16
2023-01-15T05:20:15.459Z,95443.25
2023-01-15T05:22:42.100Z,95427.28
2023-01-15T05:25:08.883Z,95449.81
2023-01-15T05:27:35.401Z,95439.16
2023-01-15T05:30:01.844Z,95446.50
2023-01-15T05:32:30.795Z,95427.34
2023-01-15T05:34:57.854Z,95446.16
2023-01-15T05:37:24.415Z,95424.00
2023-01-15T05:39:50.863Z,95423.25
2023-01-15T05:42:17.479Z,95426.94
2023-01-15T05:44:44.074Z,95423.78
2023-01-15T05:47:10.805Z,95444.16
2023-01-15T05:49:37.776Z,95432.69
2023-01-15T05:52:04.415Z,95426.63
2023-01-15T05:54:35.699Z,95436.06
2023-01-15T05:57:03.245Z,95435.03
2023-01-15T05:59:31.466Z,95429.56
2023-01-15T06:01:58.580Z,95436.34
2023-01-15T06:04:25.929Z,95441.06
2023-01-15T06:06:54.449Z,95447.13
2023-01-15T06:09:23.133Z,95442.63
2023-01-15T06:11:50.007Z,95429.28
2023-01-15T06:14:17.038Z,95416.69
2023-01-15T06:16:43.941Z,95426.66
2023-01-15T06:19:11.643Z,95418.03
2023-01-15T06:21:38.148Z,95434.78
2023-01-15T06:24:05.203Z,95425.06
2023-01-15T06:26:32.095Z,95421.16
2023-01-15T06:28:58.690Z,95415.66
2023-01-15T06:31:27.030Z,95440.03
2023-01-15T06:33:54.192Z,95410.97
2023-01-15T06:36:27.356Z,95430.06
2023-01-15T06:38:54.794Z,95415.91
2023-01-15T06:41:42.707Z,95422.47
2023-01-15T06:44:36.203Z,95429.78
2023-01-15T06:47:20.843Z,95434.78
2023-01-15T06:49:49.370Z,95405.97
2023-01-15T06:52:15.908Z,95425.31
2023-01-15T06:54:42.371Z,95425.06
2023-01-15T06:57:08.850Z,95426.16
2023-01-15T06:59:35.378Z,95423.75
2023-01-15T07:02:02.154Z,95424.56
2023-01-15T07:04:28.962Z,95409.59
2023-01-15T07:06:55.513Z,95421.91
2023-01-15T07:09:21.962Z,95414.34
2023-01-15T07:11:51.103Z,95371.13
2023-01-15T07:14:24.019Z,95422.16
2023-01-15T07:16:51.219Z,95412.16
2023-01-15T07:19:18.902Z,95410.41
2023-01-15T07:21:46.098Z,95388.88
2023-01-15T07:24:13.606Z,95351.19
2023-01-15T07:26:41.749Z,95398.34
2023-01-15T07:29:08.218Z,95241.75
2023-01-15T07:31:34.738Z,95426.63
2023-01-15T07:34:01.348Z,95360.34
2023-01-15T07:36:28.172Z,95404.06
2023-01-15T07:38:54.704Z,95401.94
2023-01-15T07:41:40.033Z,95414.78
2023-01-15T07:44:30.270Z,95414.31
2023-01-15T07:47:15.921Z,95396.97
2023-01-15T07:49:46.426Z,95423.50
2023-01-15T07:52:17.748Z,95408.25
2023-01-15T07:54:45.345Z,95403.56
2023-01-15T07:57:14.019Z,95418.22
2023-01-15T07:59:41.758Z,95375.31
2023-01-15T08:02:08.371Z,95391.53
2023-01-15T08:04:35.232Z,95433.41
2023-01-15T08:07:03.185Z,95421.91
2023-01-15T08:09:30.195Z,95413.56
2023-01-15T08:12:17.879Z,95435.84
2023-01-15T08:15:03.878Z,95468.09
2023-01-15T08:17:32.949Z,95480.66
2023-01-15T08:19:59.460Z,95492.16
2023-01-15T08:22:25.876Z,95497.06
2023-01-15T08:24:52.385Z,95495.28
2023-01-15T08:27:18.753Z,95510.53
2023-01-15T08:29:45.230Z,95482.72
2023-01-15T08:32:11.596Z,95521.66
2023-01-15T08:34:38.057Z,95511.03
2023-01-15T08:37:04.510Z,95530.31
2023-01-15T08:39:31.057Z,95504.53
2023-01-15T08:41:57.488Z,95544.25
2023-01-15T08:44:24.329Z,95555.16
2023-01-15T08:46:51.789Z,95532.72
2023-01-15T08:49:21.397Z,95509.91
2023-01-15T08:51:51.602Z,95570.41
2023-01-15T08:54:20.418Z,95586.56
2023-01-15T08:56:47.516Z,95586.47
2023-01-15T08:59:14.084Z,95577.03
2023-01-15T09:01:41.034Z,95575.41
2023-01-15T09:04:07.891Z,95581.63
2023-01-15T09:06:34.416Z,95578.28
2023-01-15T09:09:00.884Z,95612.41
2023-01-15T09:11:28.703Z,95611.75
2023-01-15T09:13:55.246Z,95613.78
2023-01-15T09:16:21.909Z,95648.13
2023-01-15T09:18:48.431Z,95649.63
2023-01-15T09:21:14.853Z,95664.44
2023-01-15T09:23:41.367Z,95650.09
2023-01-15T09:26:08.041Z,95669.69
2023-01-15T09:28:35.124Z,95657.84
2023-01-15T09:31:02.014Z,95654.13
2023-01-15T09:33:28.553Z,95624.66
2023-01-15T09:35:55.078Z,95658.69
2023-01-15T09:38:21.865Z,95670.56
2023-01-15T09:40:56.575Z,95632.09
2023-01-15T09:43:31.863Z,95696.97
2023-01-15T09:46:03.939Z,95692.88
2023-01-15T09:48:42.724Z,95685.25
2023-01-15T09:51:22.531Z,95711.59
2023-01-15T09:53:59.925Z,95658.41
2023-01-15T09:56:30.322Z,95673.56
2023-01-15T09:58:59.683Z,95714.25
2023-01-15T10:01:30.545Z,95712.06
2023-01-15T10:04:06.406Z,95726.69
2023-01-15T10:06:42.184Z,95722.44
2023-01-15T10:09:15.636Z,95714.03
2023-01-15T10:12:22.883Z,95697.22
2023-01-15T10:15:06.847Z,95714.66
2023-01-15T10:17:46.095Z,95717.50
2023-01-15T10:20:33.763Z,95692.38
2023-01-15T10:23:15.360Z,95738.53
2023-01-15T10:25:51.136Z,95721.19
2023-01-15T10:29:00.919Z,95762.63
2023-01-15T10:31:37.837Z,95774.34
2023-01-15T10:34:22.429Z,95765.88
2023-01-15T10:37:29.153Z,95770.72
2023-01-15T10:40:45.841Z,95774.94
2023-01-15T10:43:49.858Z,95790.56
2023-01-15T10:46:33.381Z,95773.13
2023-01-15T10:49:06.155Z,95783.94
2023-01-15T10:52:03.202Z,95783.44
2023-01-15T10:54:41.100Z,95781.53
2023-01-15T10:57:14.120Z,95761.91
2023-01-15T10:59:49.649Z,95760.53
2023-01-15T11:02:32.455Z,95773.78
2023-01-15T11:04:59.043Z,95763.50
2023-01-15T11:07:57.879Z,95728.00
2023-01-15T11:10:27.368Z,95771.50
2023-01-15T11:13:20.670Z,95797.03
2023-01-15T11:32:34.606Z,95798.88
2023-01-15T11:35:18.320Z,95783.34
2023-01-15T11:37:44.875Z,95781.59
2023-01-15T11:40:24.446Z,95798.13
2023-01-15T11:43:10.341Z,95805.84
2023-01-15T11:46:06.233Z,95803.59
2023-01-15T11:49:04.112Z,95809.97
2023-01-15T11:51:35.590Z,95819.38
2023-01-15T11:54:07.400Z,95822.16
2023-01-15T11:56:35.883Z,95818.03
2023-01-15T11:59:09.291Z,95835.91
2023-01-15T12:01:39.106Z,95824.59
2023-01-15T12:04:22.740Z,95838.19
2023-01-15T12:06:49.484Z,95876.34
2023-01-15T12:09:31.145Z,95871.91
2023-01-15T12:12:19.549Z,95888.03
2023-01-15T12:15:06.825Z,95868.78
2023-01-15T12:17:51.862Z,95876.25
2023-01-15T12:20:34.673Z,95844.56
2023-01-15T12:23:36.427Z,95873.91
2023-01-15T12:26:19.558Z,95865.56
2023-01-15T12:29:06.780Z,95883.88
2023-01-15T12:31:41.487Z,95907.31
2023-01-15T12:34:34.178Z,95913.00
2023-01-15T12:37:12.484Z,95921.94
2023-01-15T12:39:51.815Z,95903.91
2023-01-15T12:42:41.255Z,95938.47
2023-01-15T12:45:14.077Z,95945.69
2023-01-15T12:47:56.395Z,95943.53
2023-01-15T12:50:44.743Z,95929.94
2023-01-15T12:53:36.434Z,95959.41
2023-01-15T12:56:27.111Z,95950.31
2023-01-15T12:59:29.955Z,95951.84
2023-01-15T13:02:53.772Z,95952.25
2023-01-15T13:05:29.444Z,95945.69
2023-01-15T13:08:06.765Z,95945.97
2023-01-15T13:10:36.645Z,95939.56
2023-01-15T13:13:18.792Z,95968.13
2023-01-15T13:16:11.389Z,95969.28
2023-01-15T13:19:08.809Z,95976.44
2023-01-15T13:21:37.194Z,95980.59
2023-01-15T13:24:03.749Z,95974.88
2023-01-15T13:26:41.994Z,95986.06
2023-01-15T13:29:54.203Z,95984.97
2023-01-15T13:32:28.277Z,95958.31
2023-01-15T13:35:05.984Z,96003.91
2023-01-15T13:37:46.120Z,95997.81
2023-01-15T13:40:18.085Z,96016.28
2023-01-15T13:42:50.297Z,96028.44
2023-01-15T13:45:32.250Z,96035.94
2023-01-15T13:48:24.124Z,96044.97
2023-01-15T13:50:54.120Z,96049.72
2023-01-15T13:53:29.553Z,96045.09
2023-01-15T13:56:00.039Z,96061.72
2023-01-15T13:58:31.440Z,96063.66
2023-01-15T14:01:24.862Z,96057.56
2023-01-15T14:04:00.543Z,96067.41
2023-01-15T14:06:44.180Z,96072.69
2023-01-15T14:09:13.108Z,96071.72
2023-01-15T14:11:42.997Z,96069.16
2023-01-15T14:14:22.627Z,96065.19
2023-01-15T14:17:26.918Z,96057.84
2023-01-15T14:20:14.727Z,96042.16
2023-01-15T14:22:51.451Z,96044.00
2023-01-15T14:25:41.043Z,96024.63
2023-01-15T14:28:47.341Z,96053.59
2023-01-15T14:31:29.978Z,96040.97
2023-01-15T14:34:17.154Z,96069.19
2023-01-15T14:36:54.285Z,96066.78
2023-01-15T14:39:32.854Z,96076.56
2023-01-15T14:42:24.215Z,96089.53
2023-01-15T14:45:00.906Z,96059.53
2023-01-15T14:47:56.005Z,96099.03
2023-01-15T14:50:37.922Z,96092.56
2023-01-15T14:53:13.598Z,96076.28
2023-01-15T14:56:12.851Z,96083.97
2023-01-15T14:59:09.637Z,96092.28
2023-01-15T15:01:44.828Z,96069.78
2023-01-15T15:04:23.515Z,96098.84
2023-01-15T15:06:55.043Z,96084.25
2023-01-15T15:09:34.661Z,96099.94
2023-01-15T15:12:25.685Z,96110.81
2023-01-15T15:15:03.394Z,96092.91
2023-01-15T15:17:37.646Z,96106.03
2023-01-15T15:20:18.883Z,96093.81
2023-01-15T15:22:49.922Z,96089.38
2023-01-15T15:25:23.203Z,96102.41
2023-01-15T15:28:00.709Z,96103.25
2023-01-15T15:30:28.535Z,96100.84
2023-01-15T15:32:55.494Z,96122.53
2023-01-15T15:35:30.812Z,96131.16
2023-01-15T15:38:03.388Z,96111.88
2023-01-15T15:40:37.098Z,96095.94
2023-01-15T15:43:35.128Z,96135.59
2023-01-15T15:46:20.311Z,96145.09
2023-01-15T15:48:56.590Z,96138.16
2023-01-15T15:51:48.821Z,96141.75
2023-01-15T15:54:21.114Z,96136.09
2023-01-15T15:56:52.989Z,96133.94
2023-01-15T15:59:51.092Z,96131.53
2023-01-15T16:02:49.988Z,96136.97
2023-01-15T16:05:21.401Z,96127.78
2023-01-15T16:07:47.979Z,96130.22
2023-01-15T16:10:31.876Z,96130.78
2023-01-15T16:13:07.549Z,96134.38
2023-01-15T16:15:39.633Z,96110.44
2023-01-15T16:18:16.697Z,96120.00
2023-01-15T16:20:43.372Z,96117.50
2023-01-15T16:23:28.239Z,96126.81
2023-01-15T16:26:19.956Z,96117.50
2023-01-15T16:28:53.878Z,96096.06
2023-01-15T16:31:22.845Z,96117.97
2023-01-15T16:33:58.183Z,96125.03
2023-01-15T16:36:27.017Z,96122.28
2023-01-15T16:38:55.128Z,96132.66
2023-01-15T16:41:29.596Z,96126.16
2023-01-15T16:44:03.691Z,96118.56
2023-01-15T16:46:33.715Z,96135.47
2023-01-15T16:49:25.808Z,96139.13
2023-01-15T16:51:57.012Z,96120.78
2023-01-15T16:54:29.644Z,96152.13
2023-01-15T16:56:59.596Z,96151.50
2023-01-15T16:59:29.800Z,96150.31
2023-01-15T17:02:11.213Z,96153.53
2023-01-15T17:04:41.216Z,96151.56
2023-01-15T17:07:22.853Z,96135.03
2023-01-15T17:09:53.317Z,96156.59
2023-01-15T17:12:32.071Z,96131.69
2023-01-15T17:15:19.372Z,96150.19
2023-01-15T17:17:47.970Z,96151.81
2023-01-15T17:20:15.919Z,96162.78
2023-01-15T17:22:45.060Z,96167.75
2023-01-15T17:25:34.980Z,96160.19
2023-01-15T17:28:03.846Z,96158.00
2023-01-15T17:30:31.486Z,96162.75
2023-01-15T17:32:59.211Z,96149.22
2023-01-15T17:35:31.765Z,96154.97
2023-01-15T17:37:58.336Z,96161.56
2023-01-15T17:40:25.608Z,96154.38
2023-01-15T17:42:53.859Z,96166.75
2023-01-15T17:45:24.009Z,96162.75
2023-01-15T17:47:50.619Z,96161.38
2023-01-15T17:50:18.139Z,96167.53
2023-01-15T17:52:45.125Z,96149.19
2023-01-15T17:55:31.973Z,96155.78
2023-01-15T17:58:17.194Z,96160.97
2023-01-15T18:01:03.114Z,96136.81
2023-01-15T18:03:48.873Z,96160.13
2023-01-15T18:06:17.398Z,96163.09
2023-01-15T18:08:48.913Z,96162.72
2023-01-15T18:11:15.477Z,96158.13
2023-01-15T18:13:42.115Z,96149.97
2023-01-15T18:16:09.465Z,96149.59
2023-01-15T18:18:36.600Z,96155.34
2023-01-15T18:21:04.165Z,96156.56
2023-01-15T18:23:32.925Z,96147.41
2023-01-15T18:26:03.877Z,96154.78
2023-01-15T18:28:35.564Z,96154.97
2023-01-15T18:31:03.105Z,96143.63
2023-01-15T18:33:30.320Z,96149.63
2023-01-15T18:36:11.746Z,96148.44
2023-01-15T18:38:40.515Z,96137.84
2023-01-15T18:41:36.063Z,96142.41
2023-01-15T18:44:32.762Z,96144.81
2023-01-15T18:47:02.761Z,96142.00
2023-01-15T18:49:30.273Z,96134.06
2023-01-15T18:52:17.723Z,96138.03
2023-01-15T18:54:44.238Z,96132.28
2023-01-15T18:57:10.802Z,96138.44
2023-01-15T18:59:37.598Z,96119.69
2023-01-15T19:02:05.059Z,96129.28
2023-01-15T19:04:31.673Z,96116.53
2023-01-15T19:06:58.186Z,96132.47
2023-01-15T19:09:24.877Z,96110.16
2023-01-15T19:11:52.565Z,96114.56
2023-01-15T19:14:38.797Z,96118.53
2023-01-15T19:17:24.562Z,96127.91
2023-01-15T19:19:51.075Z,96125.31
2023-01-15T19:22:36.346Z,96071.16
2023-01-15T19:25:02.864Z,96114.38
2023-01-15T19:27:29.312Z,96075.50
2023-01-15T19:29:55.819Z,96106.41
2023-01-15T19:32:22.290Z,96116.72
2023-01-15T19:34:48.915Z,96073.94
2023-01-15T19:37:15.428Z,96100.78
2023-01-15T19:39:42.001Z,96091.66
2023-01-15T19:42:28.645Z,96098.22
2023-01-15T19:45:13.820Z,96107.19
2023-01-15T19:47:59.653Z,96084.69
2023-01-15T19:50:40.175Z,96125.09
2023-01-15T19:53:07.153Z,96084.69
2023-01-15T19:55:34.988Z,96109.97
2023-01-15T19:58:06.096Z,96114.31
2023-01-15T20:00:36.872Z,96091.63
2023-01-15T20:03:04.637Z,96082.69
2023-01-15T20:05:32.189Z,96101.41
2023-01-15T20:07:58.843Z,96061.97
2023-01-15T20:10:28.108Z,96091.84
2023-01-15T20:13:13.240Z,96079.31
2023-01-15T20:15:42.445Z,96083.47
2023-01-15T20:18:09.031Z,96071.47
2023-01-15T20:20:35.519Z,96059.75
2023-01-15T20:23:02.344Z,96002.66
2023-01-15T20:25:29.796Z,96037.50
2023-01-15T20:27:57.920Z,96011.38
2023-01-15T20:30:24.910Z,96067.53
2023-01-15T20:32:54.114Z,96040.47
2023-01-15T20:35:26.506Z,96035.28
2023-01-15T20:37:53.216Z,96015.38
2023-01-15T20:40:22.498Z,96053.63
2023-01-15T20:43:07.551Z,96043.41
2023-01-15T20:45:34.186Z,96025.53
2023-01-15T20:48:13.687Z,95977.19
2023-01-15T20:50:43.343Z,96017.97
2023-01-15T20:53:10.979Z,96023.94
2023-01-15T20:55:57.071Z,96041.06
2023-01-15T20:58:24.744Z,96032.69
2023-01-15T21:00:52.360Z,95997.69
2023-01-15T21:03:20.452Z,96038.25
2023-01-15T21:05:47.083Z,96010.19
2023-01-15T21:08:13.810Z,95951.72
2023-01-15T21:10:41.175Z,96007.63
2023-01-15T21:13:07.704Z,96006.44
2023-01-15T21:15:34.243Z,95981.56
2023-01-15T21:18:00.747Z,95982.38
2023-01-15T21:20:27.974Z,96012.78
2023-01-15T21:22:54.510Z,95953.88
2023-01-15T21:25:20.998Z,96016.00
2023-01-15T21:27:47.445Z,96012.22
2023-01-15T21:30:14.105Z,96002.06
2023-01-15T21:32:40.625Z,95987.34
2023-01-15T21:35:07.477Z,95935.19
2023-01-15T21:37:33.937Z,95951.69
2023-01-15T21:40:00.648Z,95940.16
2023-01-15T21:42:46.372Z,95954.09
2023-01-15T21:45:12.830Z,95927.00
2023-01-15T21:47:41.386Z,95969.19
2023-01-15T21:50:08.780Z,95930.72
2023-01-15T21:52:35.498Z,95961.81
2023-01-15T21:55:02.024Z,95933.34
2023-01-15T21:57:29.681Z,95948.09
2023-01-15T21:59:56.209Z,95888.03
2023-01-15T22:02:23.451Z,95946.44
2023-01-15T22:04:50.414Z,95928.41
2023-01-15T22:07:18.723Z,95908.09
2023-01-15T22:09:45.702Z,95904.16
2023-01-15T22:12:13.436Z,95941.38
2023-01-15T22:14:40.186Z,95887.63
2023-01-15T22:17:07.355Z,95904.53
2023-01-15T22:19:34.117Z,95929.22
2023-01-15T22:22:04.082Z,95914.69
2023-01-15T22:24:33.059Z,95915.28
2023-01-15T22:27:00.828Z,95860.78
2023-01-15T22:29:33.950Z,95892.19
2023-01-15T22:32:00.773Z,95897.78
2023-01-15T22:34:27.979Z,95886.44
2023-01-15T22:36:55.145Z,95826.00
2023-01-15T22:39:23.262Z,95875.69
2023-01-15T22:42:08.856Z,95881.81
2023-01-15T22:44:35.748Z,95883.47
2023-01-15T22:47:02.533Z,95843.63
2023-01-15T22:49:29.227Z,95838.31
2023-01-15T22:51:55.672Z,95843.28
2023-01-15T22:54:22.267Z,95860.53
2023-01-15T22:56:48.745Z,95857.19
2023-01-15T22:59:15.947Z,95838.69
2023-01-15T23:17:29.608Z,95822.84
2023-01-15T23:19:56.371Z,95818.47
2023-01-15T23:22:22.868Z,95814.09
2023-01-15T23:24:49.427Z,95810.53
2023-01-15T23:27:15.980Z,95807.13
2023-01-15T23:29:42.592Z,95781.69
2023-01-15T23:32:09.408Z,95767.41
2023-01-15T23:34:35.944Z,95787.47
2023-01-15T23:37:02.667Z,95790.44
2023-01-15T23:39:36.355Z,95762.81
2023-01-15T23:42:21.585Z,95753.66
2023-01-15T23:45:06.472Z,95761.81
2023-01-15T23:47:33.037Z,95769.78
2023-01-15T23:49:59.579Z,95750.72
2023-01-15T23:52:26.830Z,95773.53
2023-01-15T23:54:53.395Z,95758.66
2023-01-15T23:57:20.157Z,95767.19
2023-01-15T23:59:46.796Z,95757.25
